Time;durP1;ratioP1;P1;durP2;ratioP2;P2;SDS_P1;SDS_P2;PMS_P1;PMS_P2;Temp;Humidity;BMP_temperature;BMP_pressure;BME280_temperature;BME280_humidity;BME280_pressure;Samples;Min_cycle;Max_cycle;Signal;HPM_P1;HPM_P2
2022/10/12 00:02:03;;;;;;;0.50;0.50;;;13.80;99.90;;;;;;4963284;28;20058;-89
2022/10/12 00:04:29;;;;;;;0.20;0.20;;;13.80;99.90;;;;;;4962868;28;20406;-79
2022/10/12 00:06:55;;;;;;;0.75;0.73;;;13.80;99.90;;;;;;4961692;28;20930;-78
2022/10/12 00:09:21;;;;;;;0.45;0.45;;;13.80;99.90;;;;;;4965803;28;20090;-77
2022/10/12 00:11:46;;;;;;;0.55;0.55;;;13.80;99.90;;;;;;4970882;28;20190;-77
2022/10/12 00:14:12;;;;;;;1.45;1.45;;;13.80;99.90;;;;;;4953664;28;20442;-82
2022/10/12 00:16:38;;;;;;;0.20;0.20;;;13.80;99.90;;;;;;4973495;28;20154;-78
2022/10/12 00:19:04;;;;;;;3.85;3.65;;;13.80;99.90;;;;;;4954199;28;20116;-78
2022/10/12 00:21:30;;;;;;;2.50;2.40;;;13.70;99.90;;;;;;4970057;28;20094;-88
2022/10/12 00:23:58;;;;;;;0.20;0.20;;;13.70;99.90;;;;;;4949901;28;20090;-90
2022/10/12 00:26:24;;;;;;;0.57;0.57;;;13.70;99.90;;;;;;4968439;28;20041;-78
2022/10/12 00:28:56;;;;;;;0.20;0.20;;;13.70;99.90;;;;;;4971362;28;20062;-79
2022/10/12 00:31:22;;;;;;;4.30;4.10;;;14.20;99.90;;;;;;4969100;28;20026;-90
2022/10/12 00:33:48;;;;;;;0.43;0.43;;;13.70;99.90;;;;;;4962856;28;20133;-78
2022/10/12 00:36:26;;;;;;;1.42;1.33;;;13.80;99.90;;;;;;4963317;28;20114;-80
2022/10/12 00:38:53;;;;;;;0.30;0.30;;;15.50;99.90;;;;;;4945348;28;20324;-85
2022/10/12 00:41:22;;;;;;;0.50;0.50;;;13.70;99.90;;;;;;4963445;28;20015;-91
2022/10/12 00:43:49;;;;;;;1.38;1.38;;;14.00;99.90;;;;;;4945874;28;20510;-89
2022/10/12 00:46:21;;;;;;;0.40;0.40;;;13.70;99.90;;;;;;4962398;28;20038;-89
2022/10/12 00:48:52;;;;;;;0.28;0.28;;;13.70;99.90;;;;;;4962374;28;20086;-91
2022/10/12 00:51:19;;;;;;;0.20;0.20;;;13.70;99.90;;;;;;4961534;28;20835;-78
2022/10/12 00:53:50;;;;;;;0.32;0.32;;;13.70;99.90;;;;;;4961070;28;20026;-81
2022/10/12 00:56:28;;;;;;;1.75;1.55;;;13.60;99.90;;;;;;4961396;28;20034;-78
2022/10/12 00:58:55;;;;;;;1.70;1.60;;;14.10;99.90;;;;;;4944505;28;20047;-80
2022/10/12 01:01:21;;;;;;;12.15;3.20;;;13.70;99.90;;;;;;4943713;28;20039;-80
2022/10/12 01:03:48;;;;;;;0.70;0.70;;;13.60;99.90;;;;;;4962201;28;20028;-78
2022/10/12 01:06:14;;;;;;;3.83;3.63;;;13.60;99.90;;;;;;4945216;28;20026;-78
2022/10/12 01:08:41;;;;;;;0.40;0.40;;;13.50;99.90;;;;;;4963012;28;20022;-85
2022/10/12 01:11:07;;;;;;;3.45;3.30;;;13.60;99.90;;;;;;4944426;28;20514;-79
2022/10/12 01:13:36;;;;;;;0.43;0.43;;;13.60;99.90;;;;;;4944097;28;20054;-91
2022/10/12 01:16:39;;;;;;;1.23;1.23;;;16.10;99.90;;;;;;4961000;28;20030;-81
2022/10/12 01:19:05;;;;;;;0.30;0.30;;;13.60;99.90;;;;;;4882243;29;20052;-83
2022/10/12 01:21:36;;;;;;;0.20;0.20;;;13.60;99.90;;;;;;4866734;29;20044;-80
2022/10/12 01:24:16;;;;;;;0.30;0.30;;;13.60;99.90;;;;;;4881791;29;20041;-80
2022/10/12 01:26:53;;;;;;;2.25;2.15;;;13.60;99.90;;;;;;4865870;29;20084;-79
2022/10/12 01:29:34;;;;;;;1.98;1.88;;;13.60;99.90;;;;;;4881820;29;20043;-82
2022/10/12 01:32:15;;;;;;;0.30;0.30;;;13.70;99.90;;;;;;4882141;29;20024;-80
2022/10/12 01:34:49;;;;;;;25.38;6.10;;;13.60;99.90;;;;;;4866388;29;20347;-83
2022/10/12 01:37:26;;;;;;;1.27;1.20;;;13.60;99.90;;;;;;4866474;29;20033;-79
2022/10/12 01:39:55;;;;;;;5.40;4.95;;;13.60;99.90;;;;;;4866618;29;20028;-83
2022/10/12 01:42:28;;;;;;;4.80;4.50;;;13.60;99.90;;;;;;4881751;29;20254;-91
2022/10/12 01:45:12;;;;;;;2.53;2.42;;;13.60;99.90;;;;;;4866313;29;20135;-85
2022/10/12 01:47:40;;;;;;;0.20;0.20;;;13.60;99.90;;;;;;4866023;29;20028;-80
2022/10/12 01:50:13;;;;;;;0.30;0.30;;;13.60;99.90;;;;;;4865335;29;20580;-78
2022/10/12 01:53:17;;;;;;;3.15;2.95;;;13.60;99.90;;;;;;4882325;29;20262;-85
2022/10/12 01:56:15;;;;;;;0.55;0.55;;;13.60;99.90;;;;;;4889038;28;20027;-78
2022/10/12 01:58:51;;;;;;;2.08;1.98;;;13.60;99.90;;;;;;4943022;28;20026;-78
2022/10/12 02:01:23;;;;;;;0.20;0.20;;;13.60;99.90;;;;;;4960543;28;20054;-79
2022/10/12 02:04:07;;;;;;;0.52;0.52;;;13.60;99.90;;;;;;4993071;23;20093;-78
2022/10/12 02:06:58;;;;;;;2.35;2.10;;;13.60;99.90;;;;;;4999130;28;20469;-78
2022/10/12 02:09:34;;;;;;;0.65;0.65;;;13.60;99.90;;;;;;5300607;23;20064;-83
2022/10/12 02:12:09;;;;;;;0.10;0.10;;;13.60;99.90;;;;;;4998689;28;20049;-80
2022/10/12 02:14:47;;;;;;;0.57;0.57;;;13.60;99.90;;;;;;4997958;28;20053;-77
2022/10/12 02:17:19;;;;;;;0.25;0.25;;;13.60;99.90;;;;;;4997901;28;20029;-87
2022/10/12 02:19:55;;;;;;;0.45;0.45;;;13.60;99.90;;;;;;4999448;28;20023;-78
2022/10/12 02:22:24;;;;;;;0.20;0.20;;;13.60;99.90;;;;;;4999093;28;20030;-90
2022/10/12 02:24:53;;;;;;;2.00;1.90;;;13.60;99.90;;;;;;4997366;28;20513;-77
2022/10/12 02:27:20;;;;;;;0.85;0.85;;;13.50;99.90;;;;;;4999174;28;20022;-80
2022/10/12 02:29:47;;;;;;;0.60;0.60;;;13.50;99.90;;;;;;4999171;28;20029;-90
2022/10/12 02:32:35;;;;;;;0.10;0.10;;;13.50;99.90;;;;;;4997327;28;20026;-82
2022/10/12 02:35:12;;;;;;;0.95;0.93;;;11.60;99.90;;;;;;4988979;28;20030;-80
2022/10/12 02:37:50;;;;;;;2.13;2.03;;;13.50;99.90;;;;;;4981790;28;20081;-82
2022/10/12 02:40:17;;;;;;;0.52;0.52;;;13.50;99.90;;;;;;4999180;28;20440;-80
2022/10/12 02:42:52;;;;;;;0.10;0.10;;;12.80;99.90;;;;;;4998890;28;20539;-83
2022/10/12 02:45:20;;;;;;;0.32;0.32;;;13.50;99.90;;;;;;4998736;28;20033;-78
2022/10/12 02:47:49;;;;;;;19.98;4.85;;;13.40;99.90;;;;;;4997930;28;20019;-86
2022/10/12 02:50:16;;;;;;;22.13;20.48;;;13.40;99.90;;;;;;4999827;28;20660;-81
2022/10/12 02:52:43;;;;;;;3.22;3.10;;;13.50;99.90;;;;;;4999693;28;20014;-81
2022/10/12 02:55:10;;;;;;;1.08;1.08;;;13.50;99.90;;;;;;4999420;28;20176;-80
2022/10/12 02:57:39;;;;;;;0.20;0.20;;;13.50;99.90;;;;;;4999037;28;20019;-89
2022/10/12 03:00:05;;;;;;;0.38;0.38;;;13.50;99.90;;;;;;4981118;28;20552;-82
2022/10/12 03:02:31;;;;;;;0.15;0.15;;;13.50;99.90;;;;;;5002773;28;20029;-82
2022/10/12 03:04:56;;;;;;;0.22;0.22;;;13.60;99.90;;;;;;5003025;28;20026;-93
2022/10/12 03:07:22;;;;;;;0.80;0.80;;;13.50;99.90;;;;;;4985182;28;20619;-88
2022/10/12 03:09:48;;;;;;;1.80;1.75;;;13.50;99.90;;;;;;5003055;28;20038;-93
2022/10/12 03:12:14;;;;;;;0.70;0.70;;;13.50;99.90;;;;;;5003892;28;20049;-89
2022/10/12 03:14:39;;;;;;;23.98;3.50;;;13.40;99.90;;;;;;5004996;28;20404;-82
2022/10/12 03:17:05;;;;;;;0.63;0.63;;;13.40;99.90;;;;;;5005925;28;20022;-79
2022/10/12 03:19:31;;;;;;;0.30;0.30;;;13.10;99.90;;;;;;5002959;28;20563;-93
2022/10/12 03:21:56;;;;;;;1.98;1.88;;;13.40;99.90;;;;;;4985036;28;20398;-86
2022/10/12 03:24:22;;;;;;;1.70;1.60;;;13.40;99.90;;;;;;5002219;28;20026;-79
2022/10/12 03:26:48;;;;;;;0.45;0.45;;;13.40;99.90;;;;;;5002452;28;20545;-86
2022/10/12 03:29:14;;;;;;;0.40;0.40;;;13.40;99.90;;;;;;5002465;28;20026;-90
2022/10/12 03:31:40;;;;;;;6.05;5.50;;;13.40;99.90;;;;;;4984374;28;20034;-92
2022/10/12 03:34:05;;;;;;;0.52;0.52;;;13.40;99.90;;;;;;5005005;28;20623;-81
2022/10/12 03:36:31;;;;;;;0.52;0.52;;;13.40;99.90;;;;;;4989140;28;20022;-80
2022/10/12 03:38:57;;;;;;;0.63;0.63;;;13.40;99.90;;;;;;4991062;28;20065;-90
2022/10/12 03:41:23;;;;;;;0.30;0.30;;;13.40;99.90;;;;;;5012068;28;20320;-80
2022/10/12 03:43:48;;;;;;;1.55;1.55;;;13.40;99.90;;;;;;4989084;28;20212;-91
2022/10/12 03:46:14;;;;;;;0.17;0.17;;;13.40;99.90;;;;;;5003841;28;20733;-91
2022/10/12 03:48:40;;;;;;;2.70;2.58;;;13.40;99.90;;;;;;4985683;28;20548;-82
2022/10/12 03:51:06;;;;;;;1.95;1.85;;;13.70;99.90;;;;;;5001648;28;20041;-81
2022/10/12 03:53:32;;;;;;;0.20;0.20;;;13.40;99.90;;;;;;5002132;28;20017;-80
2022/10/12 03:55:58;;;;;;;0.15;0.15;;;13.40;99.90;;;;;;5002258;28;20307;-80
2022/10/12 03:58:23;;;;;;;3.55;3.40;;;13.40;99.90;;;;;;5002405;28;20030;-79
2022/10/12 04:00:53;;;;;;;3.90;3.70;;;13.40;99.90;;;;;;5005075;28;20025;-81
2022/10/12 04:03:19;;;;;;;0.80;0.80;;;13.30;99.90;;;;;;4986436;28;20026;-82
2022/10/12 04:05:53;;;;;;;3.42;3.22;;;13.40;99.90;;;;;;5004246;28;20072;-84
2022/10/12 04:08:22;;;;;;;0.65;0.65;;;13.40;99.90;;;;;;5000657;28;20112;-89
2022/10/12 04:10:51;;;;;;;3.67;3.45;;;13.30;99.90;;;;;;5001608;28;20045;-79
2022/10/12 04:13:18;;;;;;;1.92;1.83;;;13.30;99.90;;;;;;5000551;28;20029;-90
2022/10/12 04:15:44;;;;;;;1.63;1.55;;;13.30;99.90;;;;;;5001341;28;20034;-79
2022/10/12 04:18:10;;;;;;;0.10;0.10;;;13.30;99.90;;;;;;5001832;28;20032;-80
2022/10/12 04:20:36;;;;;;;0.95;0.93;;;13.30;99.90;;;;;;5001573;28;20026;-82
2022/10/12 04:23:02;;;;;;;7.03;6.65;;;13.30;99.90;;;;;;4987307;28;20410;-91
2022/10/12 04:25:28;;;;;;;2.60;2.50;;;13.30;99.90;;;;;;5001852;28;20034;-78
2022/10/12 04:27:53;;;;;;;1.02;1.00;;;13.30;99.90;;;;;;4983631;28;20030;-81
2022/10/12 04:30:19;;;;;;;6.25;5.28;;;13.30;99.90;;;;;;5000664;28;20586;-82
2022/10/12 04:32:45;;;;;;;0.20;0.20;;;13.30;99.90;;;;;;4982949;28;20120;-80
2022/10/12 04:35:11;;;;;;;1.55;1.50;;;13.30;99.90;;;;;;5000499;28;20021;-85
2022/10/12 04:37:37;;;;;;;0.50;0.50;;;13.40;99.90;;;;;;5001086;28;20029;-79
2022/10/12 04:40:03;;;;;;;0.10;0.10;;;13.30;99.90;;;;;;5000827;28;20064;-81
2022/10/12 04:42:28;;;;;;;2.78;2.65;;;13.30;99.90;;;;;;5001205;28;20196;-84
2022/10/12 04:44:55;;;;;;;4.65;4.38;;;13.30;99.90;;;;;;5001491;28;20037;-90
2022/10/12 04:47:21;;;;;;;4.57;3.85;;;13.30;99.90;;;;;;5002235;28;20018;-83
2022/10/12 04:49:47;;;;;;;1.10;1.05;;;13.30;99.90;;;;;;5002978;28;20029;-84
2022/10/12 04:52:12;;;;;;;0.40;0.40;;;13.30;99.90;;;;;;5002446;28;20251;-81
2022/10/12 04:54:39;;;;;;;0.70;0.70;;;13.30;99.90;;;;;;5002847;28;20034;-80
2022/10/12 04:57:05;;;;;;;11.05;7.63;;;13.30;99.90;;;;;;5001880;28;20113;-87
2022/10/12 04:59:31;;;;;;;2.63;2.50;;;;;;;;;;4983956;28;20117;-80
2022/10/12 05:01:57;;;;;;;1.75;1.65;;;13.30;99.90;;;;;;4983126;28;20255;-83
2022/10/12 05:04:23;;;;;;;0.45;0.45;;;13.30;99.90;;;;;;5000095;28;20072;-79
2022/10/12 05:06:48;;;;;;;0.57;0.57;;;13.30;99.90;;;;;;5000679;28;20034;-82
2022/10/12 05:09:15;;;;;;;0.45;0.45;;;13.30;99.90;;;;;;5000381;28;20111;-86
2022/10/12 05:11:43;;;;;;;2.75;2.55;;;13.30;99.90;;;;;;5001063;28;20042;-79
2022/10/12 05:14:09;;;;;;;0.20;0.20;;;13.30;99.90;;;;;;4982880;28;20058;-78
2022/10/12 05:16:35;;;;;;;0.20;0.20;;;13.30;99.90;;;;;;5000013;28;20377;-84
2022/10/12 05:19:01;;;;;;;0.20;0.20;;;13.30;99.90;;;;;;5000354;28;20030;-83
2022/10/12 05:21:26;;;;;;;0.20;0.20;;;13.30;99.90;;;;;;4999819;28;20357;-79
2022/10/12 05:23:52;;;;;;;0.25;0.25;;;13.40;99.90;;;;;;4999080;28;20436;-79
2022/10/12 05:26:19;;;;;;;0.20;0.20;;;13.30;99.90;;;;;;4981508;28;20121;-79
2022/10/12 05:28:44;;;;;;;0.60;0.60;;;13.30;99.90;;;;;;5000533;28;20303;-85
2022/10/12 05:31:13;;;;;;;4.18;4.00;;;13.30;99.90;;;;;;4999676;28;20418;-93
2022/10/12 05:33:39;;;;;;;1.10;1.05;;;13.40;99.90;;;;;;5000059;28;20564;-81
2022/10/12 05:36:05;;;;;;;3.45;3.25;;;13.40;99.90;;;;;;4999667;28;20022;-80
2022/10/12 05:38:31;;;;;;;0.30;0.30;;;13.30;99.90;;;;;;4981820;28;20446;-80
2022/10/12 05:40:57;;;;;;;0.65;0.65;;;13.40;99.90;;;;;;5000219;28;20322;-87
2022/10/12 05:43:22;;;;;;;0.68;0.68;;;13.40;99.90;;;;;;5000454;28;20014;-86
2022/10/12 05:45:48;;;;;;;0.28;0.28;;;13.40;99.90;;;;;;4983061;28;20445;-81
2022/10/12 05:48:14;;;;;;;0.38;0.38;;;;;;;;;;5000516;28;20101;-82
2022/10/12 05:50:40;;;;;;;0.20;0.20;;;13.40;99.90;;;;;;4999525;28;20022;-83
2022/10/12 05:53:06;;;;;;;2.97;2.80;;;13.40;99.90;;;;;;4999864;28;20683;-86
2022/10/12 05:55:32;;;;;;;2.95;2.75;;;13.50;99.90;;;;;;5000011;28;20485;-86
2022/10/12 05:57:58;;;;;;;0.50;0.50;;;13.50;99.90;;;;;;4999673;28;20569;-83
2022/10/12 06:00:23;;;;;;;2.17;2.08;;;13.50;99.90;;;;;;4999053;28;20113;-86
2022/10/12 06:02:49;;;;;;;1.55;1.45;;;13.50;99.90;;;;;;4999586;28;20026;-80
2022/10/12 06:05:15;;;;;;;7.47;5.97;;;13.60;99.90;;;;;;4981284;28;20034;-87
2022/10/12 06:07:41;;;;;;;0.63;0.63;;;13.40;99.90;;;;;;4999414;28;20349;-83
2022/10/12 06:10:07;;;;;;;1.50;1.40;;;13.60;99.90;;;;;;5000167;28;20367;-77
2022/10/12 06:12:33;;;;;;;3.47;3.17;;;13.60;99.90;;;;;;4998509;28;20056;-88
2022/10/12 06:14:59;;;;;;;1.15;1.15;;;13.60;99.90;;;;;;4998953;28;20061;-79
2022/10/12 06:17:25;;;;;;;4.40;4.00;;;13.60;99.90;;;;;;4999308;28;20026;-78
2022/10/12 06:19:50;;;;;;;0.50;0.50;;;13.60;99.90;;;;;;4999857;28;20382;-78
2022/10/12 06:22:16;;;;;;;0.38;0.38;;;13.60;99.90;;;;;;4999348;28;20022;-77
2022/10/12 06:24:42;;;;;;;12.63;6.63;;;13.60;99.90;;;;;;4981519;28;20547;-85
2022/10/12 06:27:08;;;;;;;2.28;2.10;;;13.60;99.90;;;;;;4981577;28;20034;-88
2022/10/12 06:29:34;;;;;;;0.10;0.10;;;13.70;99.90;;;;;;4999968;28;20026;-80
2022/10/12 06:32:00;;;;;;;3.08;2.92;;;13.70;99.90;;;;;;4980977;28;20113;-78
2022/10/12 06:34:26;;;;;;;0.20;0.20;;;13.80;99.90;;;;;;4998297;28;20057;-83
2022/10/12 06:36:52;;;;;;;1.83;1.73;;;13.80;99.90;;;;;;4979959;28;20323;-79
2022/10/12 06:39:18;;;;;;;1.38;1.27;;;13.90;99.90;;;;;;4979924;28;20215;-78
2022/10/12 06:41:45;;;;;;;0.63;0.63;;;13.90;99.90;;;;;;4979063;28;20097;-78
2022/10/12 06:44:11;;;;;;;0.43;0.43;;;13.90;99.90;;;;;;4997694;28;20216;-80
2022/10/12 06:46:36;;;;;;;8.57;2.30;;;13.90;99.90;;;;;;4998189;28;20390;-77
2022/10/12 06:49:03;;;;;;;0.20;0.20;;;14.00;99.90;;;;;;4998483;28;20077;-80
2022/10/12 06:51:29;;;;;;;0.65;0.65;;;14.10;99.90;;;;;;4998578;28;20033;-77
2022/10/12 06:53:55;;;;;;;0.60;0.60;;;14.10;99.90;;;;;;5005168;28;20033;-80
2022/10/12 06:56:21;;;;;;;2.30;2.17;;;14.20;99.90;;;;;;5001691;28;20022;-84
2022/10/12 06:58:47;;;;;;;0.90;0.90;;;14.30;99.90;;;;;;4980545;28;20034;-82
2022/10/12 07:01:13;;;;;;;0.55;0.55;;;14.40;99.90;;;;;;5005420;28;20026;-78
2022/10/12 07:03:41;;;;;;;0.50;0.50;;;14.50;99.90;;;;;;5007126;28;20022;-77
2022/10/12 07:06:09;;;;;;;1.02;1.02;;;14.50;99.90;;;;;;5006274;28;20052;-83
2022/10/12 07:08:37;;;;;;;1.00;1.00;;;14.50;99.90;;;;;;4990414;28;20056;-81
2022/10/12 07:11:05;;;;;;;1.05;1.05;;;14.60;99.90;;;;;;4987925;28;20525;-79
2022/10/12 07:13:31;;;;;;;0.28;0.28;;;14.70;99.90;;;;;;4988878;28;20374;-80
2022/10/12 07:15:57;;;;;;;2.00;1.90;;;14.80;99.90;;;;;;4975720;28;20033;-83
2022/10/12 07:18:24;;;;;;;0.60;0.60;;;14.80;99.90;;;;;;4989297;28;20220;-78
2022/10/12 07:20:50;;;;;;;0.40;0.40;;;14.90;99.90;;;;;;4984560;28;20026;-87
2022/10/12 07:23:16;;;;;;;0.20;0.20;;;14.90;99.90;;;;;;4983456;28;20288;-84
2022/10/12 07:25:52;;;;;;;0.25;0.25;;;14.90;99.90;;;;;;4980342;28;20295;-82
2022/10/12 07:28:19;;;;;;;1.52;1.42;;;15.00;99.90;;;;;;4980217;28;20078;-80
2022/10/12 07:30:45;;;;;;;0.40;0.40;;;15.00;99.90;;;;;;4980863;28;20512;-84
2022/10/12 07:33:11;;;;;;;0.30;0.30;;;15.10;99.90;;;;;;4981177;28;20134;-84
2022/10/12 07:35:37;;;;;;;1.73;1.60;;;15.10;99.90;;;;;;4981404;28;20022;-82
2022/10/12 07:38:03;;;;;;;0.68;0.65;;;15.20;99.90;;;;;;4983805;28;20038;-87
2022/10/12 07:40:29;;;;;;;1.30;1.25;;;16.60;99.90;;;;;;4983813;28;20065;-77
2022/10/12 07:42:55;;;;;;;0.68;0.68;;;15.30;99.90;;;;;;4983833;28;20224;-89
2022/10/12 07:45:21;;;;;;;0.35;0.35;;;15.30;99.90;;;;;;4963868;28;20097;-76
2022/10/12 07:47:47;;;;;;;3.53;3.22;;;15.40;99.90;;;;;;4981246;28;20034;-84
2022/10/12 07:50:13;;;;;;;2.50;2.40;;;15.40;99.90;;;;;;4984295;28;20062;-85
2022/10/12 07:52:39;;;;;;;0.85;0.85;;;15.40;99.90;;;;;;4986868;28;20026;-84
2022/10/12 07:55:06;;;;;;;2.13;2.03;;;15.50;99.90;;;;;;4985647;28;20331;-80
2022/10/12 07:57:32;;;;;;;0.63;0.63;;;15.60;99.90;;;;;;4985440;28;20271;-81
2022/10/12 07:59:58;;;;;;;0.77;0.77;;;15.60;99.90;;;;;;4986179;28;20119;-86
2022/10/12 08:02:24;;;;;;;14.23;3.40;;;16.50;99.90;;;;;;4986605;28;20034;-81
2022/10/12 08:04:51;;;;;;;4.95;3.60;;;15.30;99.90;;;;;;4988113;28;20133;-81
2022/10/12 08:07:16;;;;;;;0.98;0.98;;;15.90;99.90;;;;;;4986735;28;20029;-80
2022/10/12 08:09:42;;;;;;;2.65;2.47;;;15.90;99.90;;;;;;4988208;28;20129;-81
2022/10/12 08:12:10;;;;;;;2.10;1.95;;;15.90;99.90;;;;;;4968706;28;20045;-81
2022/10/12 08:14:36;;;;;;;4.03;3.75;;;15.60;99.90;;;;;;4988701;28;20022;-85
2022/10/12 08:17:02;;;;;;;3.50;3.20;;;16.00;99.90;;;;;;4988985;28;20022;-78
2022/10/12 08:19:28;;;;;;;4.13;3.83;;;16.10;99.90;;;;;;4987543;28;20312;-87
2022/10/12 08:21:53;;;;;;;0.45;0.45;;;14.60;99.90;;;;;;4988099;28;20359;-81
2022/10/12 08:24:19;;;;;;;0.65;0.65;;;16.20;99.90;;;;;;4989017;28;20245;-82
2022/10/12 08:26:45;;;;;;;1.40;1.38;;;16.30;99.90;;;;;;4987665;28;20034;-84
2022/10/12 08:29:11;;;;;;;1.73;1.63;;;16.30;99.90;;;;;;4988659;28;20259;-85
2022/10/12 08:31:37;;;;;;;4.22;3.10;;;16.40;99.90;;;;;;4987490;28;20019;-84
2022/10/12 08:34:03;;;;;;;0.17;0.17;;;16.50;99.90;;;;;;4988062;28;20537;-82
2022/10/12 08:36:29;;;;;;;0.80;0.80;;;16.60;99.90;;;;;;4987229;28;20026;-80
2022/10/12 08:38:55;;;;;;;1.33;1.25;;;16.60;99.90;;;;;;4987966;28;20031;-80
2022/10/12 08:41:36;;;;;;;1.52;1.42;;;18.40;99.90;;;;;;4987220;28;20026;-81
2022/10/12 08:44:13;;;;;;;0.45;0.45;;;16.70;99.90;;;;;;4986947;28;20093;-80
2022/10/12 08:46:40;;;;;;;4.50;3.92;;;16.90;99.90;;;;;;4986820;28;20030;-84
2022/10/12 08:49:15;;;;;;;0.40;0.40;;;17.10;99.90;;;;;;4986397;28;20049;-84
2022/10/12 08:52:05;;;;;;;2.10;2.00;;;17.30;99.90;;;;;;4987506;28;20054;-86
2022/10/12 08:54:40;;;;;;;1.65;1.55;;;17.40;99.90;;;;;;4995251;28;20289;-85
2022/10/12 08:57:17;;;;;;;3.95;3.65;;;17.50;99.90;;;;;;5002476;28;20022;-85
2022/10/12 08:59:44;;;;;;;0.10;0.10;;;17.50;99.90;;;;;;5000993;28;20022;-84
2022/10/12 09:02:35;;;;;;;0.20;0.20;;;17.60;99.90;;;;;;4999435;28;20093;-86
2022/10/12 09:05:13;;;;;;;2.15;2.05;;;17.70;99.90;;;;;;4992759;28;20530;-81
2022/10/12 09:08:12;;;;;;;0.10;0.10;;;17.60;99.90;;;;;;4988348;28;20019;-81
2022/10/12 09:10:54;;;;;;;8.60;4.45;;;17.60;99.90;;;;;;4947574;28;20042;-79
2022/10/12 09:13:54;;;;;;;1.85;1.75;;;17.60;99.90;;;;;;4987064;28;20033;-78
2022/10/12 09:16:27;;;;;;;1.77;1.67;;;17.60;99.90;;;;;;4985514;28;20505;-85
2022/10/12 09:19:03;;;;;;;1.42;1.35;;;17.50;99.90;;;;;;4984461;28;20026;-82
2022/10/12 09:21:31;;;;;;;2.53;2.40;;;17.30;99.90;;;;;;4983585;28;20026;-81
2022/10/12 09:23:57;;;;;;;1.13;1.13;;;17.30;99.90;;;;;;4967871;28;20031;-77
2022/10/12 09:26:33;;;;;;;0.20;0.20;;;17.30;99.90;;;;;;4985061;28;20092;-85
2022/10/12 09:28:59;;;;;;;1.10;1.10;;;17.30;99.90;;;;;;4982498;28;20367;-82
2022/10/12 09:31:34;;;;;;;0.65;0.65;;;17.40;99.90;;;;;;4981517;28;20026;-78
2022/10/12 09:34:03;;;;;;;0.10;0.10;;;17.50;99.90;;;;;;4981243;28;20034;-79
2022/10/12 09:36:39;;;;;;;0.10;0.10;;;17.50;99.90;;;;;;4981211;28;20324;-77
2022/10/12 09:39:18;;;;;;;1.85;1.70;;;17.70;99.90;;;;;;4981992;28;20054;-85
2022/10/12 09:41:46;;;;;;;0.88;0.88;;;17.90;99.90;;;;;;4980655;28;20058;-78
2022/10/12 09:44:28;;;;;;;1.27;1.17;;;18.10;99.90;;;;;;4980382;28;20501;-81
2022/10/12 09:47:22;;;;;;;1.45;1.38;;;18.20;99.90;;;;;;4981906;28;20556;-80
2022/10/12 09:49:52;;;;;;;0.10;0.10;;;18.30;99.90;;;;;;4883607;29;20299;-83
2022/10/12 09:52:23;;;;;;;0.43;0.43;;;18.40;99.90;;;;;;4883419;29;20032;-85
2022/10/12 09:54:56;;;;;;;3.83;2.53;;;18.40;99.90;;;;;;4884249;29;20097;-87
2022/10/12 09:57:35;;;;;;;0.45;0.45;;;18.50;99.90;;;;;;4883488;29;20291;-78
2022/10/12 10:00:07;;;;;;;0.10;0.10;;;18.50;99.90;;;;;;4882314;29;20029;-89
2022/10/12 10:02:46;;;;;;;1.83;1.67;;;18.70;99.90;;;;;;4883962;29;20043;-81
2022/10/12 10:05:33;;;;;;;0.25;0.25;;;18.80;99.90;;;;;;4884287;29;20044;-85
2022/10/12 10:08:13;;;;;;;0.60;0.60;;;19.00;99.90;;;;;;4868868;29;20564;-81
2022/10/12 10:10:52;;;;;;;1.88;1.77;;;19.40;99.90;;;;;;4892296;29;20071;-78
2022/10/12 10:13:19;;;;;;;1.02;0.98;;;20.00;99.90;;;;;;4899929;29;20040;-81
2022/10/12 10:15:48;;;;;;;1.20;1.10;;;19.90;99.90;;;;;;4900357;29;20488;-82
2022/10/12 10:18:22;;;;;;;1.25;1.13;;;20.20;99.90;;;;;;4903583;29;20350;-78
2022/10/12 10:20:54;;;;;;;0.73;0.73;;;20.60;99.90;;;;;;4902249;29;20063;-78
2022/10/12 10:23:51;;;;;;;0.60;0.60;;;21.00;99.30;;;;;;4902286;29;20028;-87
2022/10/12 10:26:20;;;;;;;0.20;0.20;;;21.20;97.50;;;;;;4872161;29;20051;-77
2022/10/12 10:28:49;;;;;;;1.30;1.23;;;21.60;97.80;;;;;;4928898;29;20036;-80
2022/10/12 10:31:21;;;;;;;0.30;0.30;;;21.50;96.70;;;;;;4927156;29;20058;-83
2022/10/12 10:34:06;;;;;;;0.90;0.90;;;21.70;96.90;;;;;;4928267;29;20260;-81
2022/10/12 10:36:38;;;;;;;2.38;2.22;;;21.80;95.70;;;;;;4925978;29;20032;-81
2022/10/12 10:39:12;;;;;;;0.70;0.67;;;22.00;95.20;;;;;;4906018;29;20031;-81
2022/10/12 10:41:40;;;;;;;0.47;0.47;;;22.30;94.10;;;;;;4919700;29;20295;-81
2022/10/12 10:44:28;;;;;;;0.10;0.10;;;22.50;93.30;;;;;;4903830;29;20511;-80
2022/10/12 10:46:59;;;;;;;0.25;0.25;;;22.40;93.20;;;;;;4920106;29;20036;-81
2022/10/12 10:49:35;;;;;;;5.03;3.28;;;21.90;93.00;;;;;;4921107;29;20032;-82
2022/10/12 10:52:03;;;;;;;0.85;0.85;;;21.70;93.50;;;;;;4920156;29;20031;-85
2022/10/12 10:54:32;;;;;;;0.38;0.38;;;21.80;93.90;;;;;;4919596;29;20111;-84
2022/10/12 10:57:12;;;;;;;2.22;2.05;;;21.70;94.30;;;;;;4919474;29;20035;-77
2022/10/12 10:59:44;;;;;;;0.50;0.50;;;21.70;94.10;;;;;;4919106;29;20023;-81
2022/10/12 11:02:49;;;;;;;0.40;0.40;;;21.90;93.70;;;;;;4960582;28;20042;-79
2022/10/12 11:05:39;;;;;;;0.30;0.30;;;21.80;97.10;;;;;;5013010;28;20034;-81
2022/10/12 11:08:23;;;;;;;0.40;0.40;;;21.00;97.30;;;;;;4998827;28;20437;-80
2022/10/12 11:10:56;;;;;;;0.20;0.20;;;21.20;97.60;;;;;;4998800;28;20050;-88
2022/10/12 11:13:30;;;;;;;3.30;3.00;;;21.20;98.20;;;;;;4998668;28;20053;-81
2022/10/12 11:16:27;;;;;;;1.38;1.05;;;20.80;97.40;;;;;;4998172;28;20227;-83
2022/10/12 11:18:56;;;;;;;0.10;0.10;;;20.80;97.70;;;;;;4920762;29;20135;-82
2022/10/12 11:21:31;;;;;;;1.80;1.05;;;20.60;98.00;;;;;;4937157;29;20114;-80
2022/10/12 11:24:17;;;;;;;5.07;2.67;;;20.60;98.20;;;;;;4939651;28;20066;-78
2022/10/12 11:26:49;;;;;;;1.15;1.15;;;20.50;97.20;;;;;;4924398;29;20037;-77
2022/10/12 11:29:16;;;;;;;0.95;0.95;;;20.50;97.10;;;;;;4940564;29;20094;-84
2022/10/12 11:32:08;;;;;;;6.03;2.63;;;20.10;98.60;;;;;;4925847;29;20099;-78
2022/10/12 11:34:51;;;;;;;3.50;2.15;;;19.90;99.90;;;;;;4925048;29;20046;-78
2022/10/12 11:37:22;;;;;;;1.17;1.13;;;19.80;99.90;;;;;;4942623;28;20043;-77
2022/10/12 11:39:52;;;;;;;10.48;2.58;;;19.80;99.90;;;;;;4941421;29;20125;-80
2022/10/12 11:42:36;;;;;;;0.55;0.55;;;19.70;99.90;;;;;;4941284;29;20035;-81
2022/10/12 11:45:06;;;;;;;0.15;0.15;;;19.40;99.90;;;;;;4926576;29;20445;-80
2022/10/12 11:47:40;;;;;;;0.10;0.10;;;19.30;99.90;;;;;;4930193;29;20439;-86
2022/10/12 11:50:37;;;;;;;1.42;1.33;;;19.20;99.90;;;;;;4930254;29;20035;-79
2022/10/12 11:53:07;;;;;;;0.40;0.40;;;19.10;99.90;;;;;;4946021;29;20118;-82
2022/10/12 11:56:08;;;;;;;2.10;1.83;;;19.10;99.90;;;;;;4948771;28;20551;-79
2022/10/12 11:58:42;;;;;;;4.55;4.35;;;19.20;99.90;;;;;;5004604;28;20033;-83
2022/10/12 12:01:19;;;;;;;;;;;19.30;99.90;;;;;;5005142;28;20140;-78
2022/10/12 12:03:51;;;;;;;6.25;1.95;;;19.50;99.90;;;;;;4988131;28;19992;-78
2022/10/12 12:06:44;;;;;;;3.10;2.53;;;19.60;99.90;;;;;;5003158;28;20034;-78
2022/10/12 12:09:36;;;;;;;2.58;2.38;;;19.60;99.90;;;;;;5004759;28;20572;-78
2022/10/12 12:12:11;;;;;;;1.00;1.00;;;19.60;99.90;;;;;;4985245;28;20552;-84
2022/10/12 12:14:52;;;;;;;1.38;1.27;;;19.50;99.90;;;;;;4987279;28;20550;-90
2022/10/12 12:17:18;;;;;;;0.63;0.63;;;18.50;99.90;;;;;;5005846;28;20437;-79
2022/10/12 12:19:45;;;;;;;0.40;0.40;;;19.60;99.90;;;;;;5004130;28;20022;-82
2022/10/12 12:22:19;;;;;;;2.70;2.60;;;19.50;99.90;;;;;;5003539;28;20025;-83
2022/10/12 12:25:04;;;;;;;1.55;1.33;;;19.50;99.90;;;;;;5004888;28;20037;-78
2022/10/12 12:27:52;;;;;;;5.40;1.40;;;19.50;99.90;;;;;;5002072;28;20022;-77
2022/10/12 12:30:27;;;;;;;0.45;0.45;;;19.60;99.90;;;;;;5003821;28;20014;-82
2022/10/12 12:33:03;;;;;;;2.40;2.30;;;19.50;99.90;;;;;;4986822;28;20068;-77
2022/10/12 12:35:37;;;;;;;0.20;0.20;;;19.40;99.90;;;;;;5004894;28;20022;-81
2022/10/12 12:38:12;;;;;;;1.30;1.30;;;19.50;99.90;;;;;;5006387;28;20418;-85
2022/10/12 12:40:52;;;;;;;0.20;0.20;;;19.60;99.90;;;;;;5003081;28;20211;-82
2022/10/12 12:43:27;;;;;;;0.93;0.93;;;19.70;99.90;;;;;;5001160;28;20671;-90
2022/10/12 12:45:57;;;;;;;0.20;0.20;;;19.80;99.70;;;;;;5001683;28;20099;-79
2022/10/12 12:48:40;;;;;;;0.38;0.38;;;19.70;99.60;;;;;;5002346;28;20021;-76
2022/10/12 12:51:10;;;;;;;;;;;19.80;99.40;;;;;;5001203;28;20410;-77
2022/10/12 12:53:55;;;;;;;0.10;0.10;;;19.80;99.20;;;;;;5000859;28;19979;-79
2022/10/12 12:56:58;;;;;;;0.10;0.10;;;19.90;99.20;;;;;;4999980;28;20018;-81
2022/10/12 13:00:07;;;;;;;0.50;0.50;;;19.90;99.40;;;;;;5000914;28;20026;-84
2022/10/12 13:02:39;;;;;;;0.30;0.30;;;19.90;99.10;;;;;;4939192;29;20535;-77
2022/10/12 13:05:38;;;;;;;0.63;0.63;;;19.90;99.10;;;;;;4939739;29;20345;-81
2022/10/12 13:08:06;;;;;;;0.30;0.30;;;20.00;99.10;;;;;;4940252;29;20046;-79
2022/10/12 13:10:50;;;;;;;1.27;1.17;;;19.90;98.90;;;;;;4940252;28;20043;-86